Newcastle, Wyoming
Current Conditions -  °F | °C
As of 9:15 AM on Tuesday 21 Oct 2014 (Local Time) from KECS Reporting Station
Clear Clear  
Wind Chill: 63°   Ceiling: Unl
Heat Index: 63°   Visibility: 10mi
Dew Point: 36°   Wind: 10mph
Humidity: 37%   Direction: 130°SE
Pressure: 29.91"   Gusts: 17mph
Location:  43.85°N, 104.2°W
Report Text: KECS 211515Z AUTO 13009G15KT 10SM CLR 17/02 A2991 RMK AO2
Loading
Personal Weather Stations






























Interactive Weather Map
Tropical Storm Tracking
New forecast layout! Learn more

10-Day Weather Forecast

Advertisements
Track Severe Weather on mobile